sensor_id;sensor_type;location;lat;lon;timestamp;pressure;altitude;pressure_sealevel;temperature;humidity
81905;BME280;71370;-33.792;151.032;2024-01-15T00:00:14;101666.03;;;20.79;78.21
81905;BME280;71370;-33.792;151.032;2024-01-15T00:01:22;101666.58;;;20.79;78.16
81905;BME280;71370;-33.792;151.032;2024-01-15T00:02:29;101666.98;;;20.77;77.81
81905;BME280;71370;-33.792;151.032;2024-01-15T00:03:36;101668.05;;;20.77;77.81
81905;BME280;71370;-33.792;151.032;2024-01-15T00:04:43;101669.34;;;20.76;77.60
81905;BME280;71370;-33.792;151.032;2024-01-15T00:05:50;101662.95;;;20.76;77.48
81905;BME280;71370;-33.792;151.032;2024-01-15T00:06:56;101669.06;;;20.75;77.23
81905;BME280;71370;-33.792;151.032;2024-01-15T00:08:04;101674.09;;;20.74;77.71
81905;BME280;71370;-33.792;151.032;2024-01-15T00:09:10;101673.57;;;20.74;78.00
81905;BME280;71370;-33.792;151.032;2024-01-15T00:10:17;101678.92;;;20.74;78.00
81905;BME280;71370;-33.792;151.032;2024-01-15T00:11:24;101675.40;;;20.73;78.20
81905;BME280;71370;-33.792;151.032;2024-01-15T00:12:31;101678.53;;;20.70;77.59
81905;BME280;71370;-33.792;151.032;2024-01-15T00:13:38;101671.27;;;20.69;77.72
81905;BME280;71370;-33.792;151.032;2024-01-15T00:14:45;101673.13;;;20.67;78.17
81905;BME280;71370;-33.792;151.032;2024-01-15T00:15:52;101678.37;;;20.66;77.95
81905;BME280;71370;-33.792;151.032;2024-01-15T00:16:59;101678.42;;;20.64;77.83
81905;BME280;71370;-33.792;151.032;2024-01-15T00:18:06;101673.31;;;20.63;77.51
81905;BME280;71370;-33.792;151.032;2024-01-15T00:19:13;101672.65;;;20.61;77.88
81905;BME280;71370;-33.792;151.032;2024-01-15T00:20:20;101672.00;;;20.59;77.46
81905;BME280;71370;-33.792;151.032;2024-01-15T00:21:27;101667.42;;;20.57;77.55
81905;BME280;71370;-33.792;151.032;2024-01-15T00:22:34;101667.85;;;20.55;77.79
81905;BME280;71370;-33.792;151.032;2024-01-15T00:23:44;101667.91;;;20.54;78.00
81905;BME280;71370;-33.792;151.032;2024-01-15T00:24:51;101670.81;;;20.53;78.21
81905;BME280;71370;-33.792;151.032;2024-01-15T00:25:58;101663.92;;;20.51;77.93
81905;BME280;71370;-33.792;151.032;2024-01-15T00:27:05;101662.38;;;20.49;78.03
81905;BME280;71370;-33.792;151.032;2024-01-15T00:28:12;101662.05;;;20.48;78.06
81905;BME280;71370;-33.792;151.032;2024-01-15T00:29:18;101658.84;;;20.48;78.24
81905;BME280;71370;-33.792;151.032;2024-01-15T00:30:25;101662.95;;;20.48;78.11
81905;BME280;71370;-33.792;151.032;2024-01-15T00:31:32;101661.51;;;20.49;77.95
81905;BME280;71370;-33.792;151.032;2024-01-15T00:32:39;101662.95;;;20.48;77.89
81905;BME280;71370;-33.792;151.032;2024-01-15T00:33:46;101657.92;;;20.49;78.35
81905;BME280;71370;-33.792;151.032;2024-01-15T00:34:53;101665.77;;;20.49;78.28
81905;BME280;71370;-33.792;151.032;2024-01-15T00:36:00;101660.55;;;20.50;78.41
81905;BME280;71370;-33.792;151.032;2024-01-15T00:37:07;101662.14;;;20.51;78.49
81905;BME280;71370;-33.792;151.032;2024-01-15T00:38:14;101661.72;;;20.52;78.48
81905;BME280;71370;-33.792;151.032;2024-01-15T00:39:21;101662.52;;;20.54;78.11
81905;BME280;71370;-33.792;151.032;2024-01-15T00:40:28;101658.02;;;20.55;77.43
81905;BME280;71370;-33.792;151.032;2024-01-15T00:41:35;101657.05;;;20.57;77.38
81905;BME280;71370;-33.792;151.032;2024-01-15T00:42:42;101657.54;;;20.59;77.24
81905;BME280;71370;-33.792;151.032;2024-01-15T00:43:49;101656.94;;;20.60;77.18
81905;BME280;71370;-33.792;151.032;2024-01-15T00:44:56;101652.89;;;20.63;77.51
81905;BME280;71370;-33.792;151.032;2024-01-15T00:46:03;101655.64;;;20.66;77.78
81905;BME280;71370;-33.792;151.032;2024-01-15T00:47:10;101653.75;;;20.69;77.36
81905;BME280;71370;-33.792;151.032;2024-01-15T00:48:17;101653.27;;;20.72;77.09
81905;BME280;71370;-33.792;151.032;2024-01-15T00:49:24;101648.01;;;20.74;76.90
81905;BME280;71370;-33.792;151.032;2024-01-15T00:50:31;101648.24;;;20.77;76.47
81905;BME280;71370;-33.792;151.032;2024-01-15T00:51:38;101648.70;;;20.78;76.09
81905;BME280;71370;-33.792;151.032;2024-01-15T00:52:44;101643.61;;;20.81;76.22
81905;BME280;71370;-33.792;151.032;2024-01-15T00:53:51;101644.23;;;20.83;75.96
81905;BME280;71370;-33.792;151.032;2024-01-15T00:54:58;101650.60;;;20.85;75.93
81905;BME280;71370;-33.792;151.032;2024-01-15T00:56:05;101643.20;;;20.87;76.26
81905;BME280;71370;-33.792;151.032;2024-01-15T00:57:12;101648.30;;;20.88;76.09
81905;BME280;71370;-33.792;151.032;2024-01-15T00:58:19;101642.39;;;20.89;75.78
81905;BME280;71370;-33.792;151.032;2024-01-15T00:59:26;101641.66;;;20.89;75.01
81905;BME280;71370;-33.792;151.032;2024-01-15T01:00:33;101647.36;;;20.89;75.16
81905;BME280;71370;-33.792;151.032;2024-01-15T01:01:40;101650.71;;;20.90;75.15
81905;BME280;71370;-33.792;151.032;2024-01-15T01:02:49;101651.61;;;20.90;74.40
81905;BME280;71370;-33.792;151.032;2024-01-15T01:03:56;101651.17;;;20.92;74.49
81905;BME280;71370;-33.792;151.032;2024-01-15T01:05:03;101646.46;;;20.94;74.77
81905;BME280;71370;-33.792;151.032;2024-01-15T01:06:10;101652.31;;;20.94;74.32
81905;BME280;71370;-33.792;151.032;2024-01-15T01:07:17;101644.45;;;20.95;73.87
81905;BME280;71370;-33.792;151.032;2024-01-15T01:08:25;101646.02;;;20.96;73.44
81905;BME280;71370;-33.792;151.032;2024-01-15T01:09:32;101645.93;;;20.98;73.82
81905;BME280;71370;-33.792;151.032;2024-01-15T01:10:39;101637.69;;;20.98;72.50
81905;BME280;71370;-33.792;151.032;2024-01-15T01:11:48;101643.11;;;21.01;73.52
81905;BME280;71370;-33.792;151.032;2024-01-15T01:12:55;101642.38;;;21.02;73.39
81905;BME280;71370;-33.792;151.032;2024-01-15T01:14:02;101649.69;;;21.02;73.41
81905;BME280;71370;-33.792;151.032;2024-01-15T01:15:09;101646.77;;;21.03;73.15
81905;BME280;71370;-33.792;151.032;2024-01-15T01:16:16;101643.19;;;21.03;72.78
81905;BME280;71370;-33.792;151.032;2024-01-15T01:17:23;101640.69;;;21.03;73.27
81905;BME280;71370;-33.792;151.032;2024-01-15T01:18:30;101640.66;;;21.04;73.51
81905;BME280;71370;-33.792;151.032;2024-01-15T01:19:37;101638.12;;;21.05;73.80
81905;BME280;71370;-33.792;151.032;2024-01-15T01:20:44;101643.55;;;21.07;73.98
81905;BME280;71370;-33.792;151.032;2024-01-15T01:21:51;101639.72;;;21.09;74.27
81905;BME280;71370;-33.792;151.032;2024-01-15T01:22:58;101637.66;;;21.11;74.32
81905;BME280;71370;-33.792;151.032;2024-01-15T01:24:05;101636.45;;;21.15;73.98
81905;BME280;71370;-33.792;151.032;2024-01-15T01:25:12;101640.92;;;21.18;74.43
81905;BME280;71370;-33.792;151.032;2024-01-15T01:26:19;101638.50;;;21.21;74.15
81905;BME280;71370;-33.792;151.032;2024-01-15T01:27:26;101637.70;;;21.23;73.65
81905;BME280;71370;-33.792;151.032;2024-01-15T01:28:33;101639.59;;;21.24;72.54
81905;BME280;71370;-33.792;151.032;2024-01-15T01:29:40;101634.52;;;21.26;72.93
81905;BME280;71370;-33.792;151.032;2024-01-15T01:30:47;101637.48;;;21.28;72.50
81905;BME280;71370;-33.792;151.032;2024-01-15T01:31:53;101628.45;;;21.30;72.91
81905;BME280;71370;-33.792;151.032;2024-01-15T01:33:00;101631.23;;;21.32;72.95
81905;BME280;71370;-33.792;151.032;2024-01-15T01:34:07;101627.25;;;21.32;73.27
81905;BME280;71370;-33.792;151.032;2024-01-15T01:35:14;101622.70;;;21.34;73.55
81905;BME280;71370;-33.792;151.032;2024-01-15T01:36:21;101625.86;;;21.35;72.90
81905;BME280;71370;-33.792;151.032;2024-01-15T01:37:28;101626.20;;;21.36;72.36
81905;BME280;71370;-33.792;151.032;2024-01-15T01:38:36;101622.05;;;21.37;72.05
81905;BME280;71370;-33.792;151.032;2024-01-15T01:39:44;101618.37;;;21.39;72.21
81905;BME280;71370;-33.792;151.032;2024-01-15T01:40:51;101620.02;;;21.43;72.67
81905;BME280;71370;-33.792;151.032;2024-01-15T01:41:58;101619.34;;;21.46;72.80
81905;BME280;71370;-33.792;151.032;2024-01-15T01:43:09;101616.48;;;21.50;72.07
81905;BME280;71370;-33.792;151.032;2024-01-15T01:44:16;101612.37;;;21.54;72.62
81905;BME280;71370;-33.792;151.032;2024-01-15T01:45:23;101613.61;;;21.58;71.77
81905;BME280;71370;-33.792;151.032;2024-01-15T01:46:30;101610.26;;;21.61;71.61
81905;BME280;71370;-33.792;151.032;2024-01-15T01:47:38;101610.77;;;21.66;72.14
81905;BME280;71370;-33.792;151.032;2024-01-15T01:48:45;101618.23;;;21.71;71.00
81905;BME280;71370;-33.792;151.032;2024-01-15T01:49:52;101615.98;;;21.73;70.59
81905;BME280;71370;-33.792;151.032;2024-01-15T01:51:02;101616.80;;;21.74;70.14
81905;BME280;71370;-33.792;151.032;2024-01-15T01:52:10;101613.80;;;21.74;69.91
81905;BME280;71370;-33.792;151.032;2024-01-15T01:53:18;101618.03;;;21.75;70.63
81905;BME280;71370;-33.792;151.032;2024-01-15T01:54:26;101617.83;;;21.76;70.84
81905;BME280;71370;-33.792;151.032;2024-01-15T01:55:35;101614.65;;;21.78;70.91
81905;BME280;71370;-33.792;151.032;2024-01-15T01:56:43;101609.25;;;21.79;70.51
81905;BME280;71370;-33.792;151.032;2024-01-15T01:57:50;101612.56;;;21.81;70.89
81905;BME280;71370;-33.792;151.032;2024-01-15T01:58:57;101610.91;;;21.82;70.08
81905;BME280;71370;-33.792;151.032;2024-01-15T02:00:05;101607.01;;;21.81;69.45
81905;BME280;71370;-33.792;151.032;2024-01-15T02:01:13;101604.02;;;21.80;69.39
81905;BME280;71370;-33.792;151.032;2024-01-15T02:02:21;101602.98;;;21.79;68.78
81905;BME280;71370;-33.792;151.032;2024-01-15T02:03:30;101609.45;;;21.78;68.83
81905;BME280;71370;-33.792;151.032;2024-01-15T02:04:37;101613.47;;;21.77;69.13
81905;BME280;71370;-33.792;151.032;2024-01-15T02:05:44;101614.84;;;21.74;68.42
81905;BME280;71370;-33.792;151.032;2024-01-15T02:06:53;101613.39;;;21.71;68.96
81905;BME280;71370;-33.792;151.032;2024-01-15T02:07:59;101613.61;;;21.66;69.19
81905;BME280;71370;-33.792;151.032;2024-01-15T02:09:08;101618.09;;;21.62;69.56
81905;BME280;71370;-33.792;151.032;2024-01-15T02:10:16;101619.23;;;21.56;69.90
81905;BME280;71370;-33.792;151.032;2024-01-15T02:11:23;101619.88;;;21.50;70.15
81905;BME280;71370;-33.792;151.032;2024-01-15T02:12:30;101617.10;;;21.44;70.67
81905;BME280;71370;-33.792;151.032;2024-01-15T02:13:39;101617.70;;;21.38;70.97
81905;BME280;71370;-33.792;151.032;2024-01-15T02:14:46;101620.45;;;21.32;71.17
81905;BME280;71370;-33.792;151.032;2024-01-15T02:15:53;101621.64;;;21.26;71.56
81905;BME280;71370;-33.792;151.032;2024-01-15T02:17:01;101632.21;;;21.21;71.73
81905;BME280;71370;-33.792;151.032;2024-01-15T02:18:08;101631.23;;;21.15;71.53
81905;BME280;71370;-33.792;151.032;2024-01-15T02:19:16;101627.71;;;21.10;71.79
81905;BME280;71370;-33.792;151.032;2024-01-15T02:20:23;101629.50;;;21.06;72.22
81905;BME280;71370;-33.792;151.032;2024-01-15T02:21:31;101627.77;;;21.00;71.96
81905;BME280;71370;-33.792;151.032;2024-01-15T02:22:38;101630.17;;;20.94;72.43
81905;BME280;71370;-33.792;151.032;2024-01-15T02:23:45;101630.67;;;20.91;72.94
81905;BME280;71370;-33.792;151.032;2024-01-15T02:24:52;101630.76;;;20.89;73.03
81905;BME280;71370;-33.792;151.032;2024-01-15T02:26:00;101625.14;;;20.87;73.04
81905;BME280;71370;-33.792;151.032;2024-01-15T02:27:08;101625.08;;;20.83;73.22
81905;BME280;71370;-33.792;151.032;2024-01-15T02:28:17;101627.16;;;20.81;73.33
81905;BME280;71370;-33.792;151.032;2024-01-15T02:29:24;101626.50;;;20.79;73.48
81905;BME280;71370;-33.792;151.032;2024-01-15T02:30:31;101626.10;;;20.76;73.18
81905;BME280;71370;-33.792;151.032;2024-01-15T02:31:39;101625.16;;;20.73;73.33
81905;BME280;71370;-33.792;151.032;2024-01-15T02:32:46;101623.60;;;20.72;73.59
81905;BME280;71370;-33.792;151.032;2024-01-15T02:33:53;101621.11;;;20.71;73.86
81905;BME280;71370;-33.792;151.032;2024-01-15T02:35:00;101624.52;;;20.71;74.25
81905;BME280;71370;-33.792;151.032;2024-01-15T02:36:07;101618.56;;;20.73;74.51
81905;BME280;71370;-33.792;151.032;2024-01-15T02:37:14;101619.02;;;20.75;74.44
81905;BME280;71370;-33.792;151.032;2024-01-15T02:38:21;101620.77;;;20.76;74.46
81905;BME280;71370;-33.792;151.032;2024-01-15T02:39:28;101619.61;;;20.77;74.67
81905;BME280;71370;-33.792;151.032;2024-01-15T02:40:35;101608.51;;;20.78;74.82
81905;BME280;71370;-33.792;151.032;2024-01-15T02:41:42;101605.77;;;20.79;74.84
81905;BME280;71370;-33.792;151.032;2024-01-15T02:42:49;101604.52;;;20.80;74.91
81905;BME280;71370;-33.792;151.032;2024-01-15T02:43:56;101603.44;;;20.80;74.57
81905;BME280;71370;-33.792;151.032;2024-01-15T02:45:04;101602.50;;;20.80;74.78
81905;BME280;71370;-33.792;151.032;2024-01-15T02:46:11;101604.58;;;20.82;74.97
81905;BME280;71370;-33.792;151.032;2024-01-15T02:47:18;101605.69;;;20.86;75.15
81905;BME280;71370;-33.792;151.032;2024-01-15T02:48:24;101599.80;;;20.90;75.12
81905;BME280;71370;-33.792;151.032;2024-01-15T02:49:31;101593.91;;;20.93;74.68
81905;BME280;71370;-33.792;151.032;2024-01-15T02:50:38;101598.91;;;20.97;74.96
81905;BME280;71370;-33.792;151.032;2024-01-15T02:51:45;101598.47;;;21.04;75.17
81905;BME280;71370;-33.792;151.032;2024-01-15T02:52:53;101600.73;;;21.09;74.03
81905;BME280;71370;-33.792;151.032;2024-01-15T02:53:59;101604.65;;;21.14;73.57
81905;BME280;71370;-33.792;151.032;2024-01-15T02:55:07;101596.52;;;21.19;73.54
81905;BME280;71370;-33.792;151.032;2024-01-15T02:56:14;101594.67;;;21.25;73.86
81905;BME280;71370;-33.792;151.032;2024-01-15T02:57:21;101593.70;;;21.30;74.45
81905;BME280;71370;-33.792;151.032;2024-01-15T02:58:28;101591.11;;;21.36;74.36
81905;BME280;71370;-33.792;151.032;2024-01-15T02:59:35;101591.98;;;21.41;73.35
81905;BME280;71370;-33.792;151.032;2024-01-15T03:00:41;101584.29;;;21.46;72.35
81905;BME280;71370;-33.792;151.032;2024-01-15T03:01:49;101581.06;;;21.50;72.43
81905;BME280;71370;-33.792;151.032;2024-01-15T03:02:57;101579.80;;;21.54;72.19
81905;BME280;71370;-33.792;151.032;2024-01-15T03:04:04;101583.01;;;21.58;71.99
81905;BME280;71370;-33.792;151.032;2024-01-15T03:05:11;101582.50;;;21.62;72.07
81905;BME280;71370;-33.792;151.032;2024-01-15T03:06:17;101583.80;;;21.64;71.29
81905;BME280;71370;-33.792;151.032;2024-01-15T03:07:25;101593.03;;;21.66;70.88
81905;BME280;71370;-33.792;151.032;2024-01-15T03:08:31;101591.10;;;21.69;71.28
81905;BME280;71370;-33.792;151.032;2024-01-15T03:09:38;101590.10;;;21.71;71.92
81905;BME280;71370;-33.792;151.032;2024-01-15T03:10:45;101592.61;;;21.75;71.25
81905;BME280;71370;-33.792;151.032;2024-01-15T03:11:53;101582.02;;;21.79;71.95
81905;BME280;71370;-33.792;151.032;2024-01-15T03:13:00;101585.00;;;21.85;71.16
81905;BME280;71370;-33.792;151.032;2024-01-15T03:14:07;101586.40;;;21.89;70.11
81905;BME280;71370;-33.792;151.032;2024-01-15T03:15:14;101584.75;;;21.93;71.41
81905;BME280;71370;-33.792;151.032;2024-01-15T03:16:20;101587.51;;;21.96;70.46
81905;BME280;71370;-33.792;151.032;2024-01-15T03:17:27;101588.75;;;21.96;69.87
81905;BME280;71370;-33.792;151.032;2024-01-15T03:18:34;101589.47;;;21.99;68.78
81905;BME280;71370;-33.792;151.032;2024-01-15T03:19:41;101589.26;;;22.01;69.12
81905;BME280;71370;-33.792;151.032;2024-01-15T03:20:48;101587.43;;;22.01;69.04
81905;BME280;71370;-33.792;151.032;2024-01-15T03:21:55;101589.45;;;22.04;68.49
81905;BME280;71370;-33.792;151.032;2024-01-15T03:23:02;101590.75;;;22.07;68.46
81905;BME280;71370;-33.792;151.032;2024-01-15T03:24:09;101591.17;;;22.09;68.59
81905;BME280;71370;-33.792;151.032;2024-01-15T03:25:16;101586.82;;;22.10;68.00
81905;BME280;71370;-33.792;151.032;2024-01-15T03:26:23;101591.17;;;22.13;67.99
81905;BME280;71370;-33.792;151.032;2024-01-15T03:27:30;101593.93;;;22.15;67.37
81905;BME280;71370;-33.792;151.032;2024-01-15T03:28:36;101590.38;;;22.18;68.35
81905;BME280;71370;-33.792;151.032;2024-01-15T03:29:43;101591.66;;;22.22;67.07
81905;BME280;71370;-33.792;151.032;2024-01-15T03:30:50;101589.38;;;22.24;66.33
81905;BME280;71370;-33.792;151.032;2024-01-15T03:31:57;101591.09;;;22.27;66.70
81905;BME280;71370;-33.792;151.032;2024-01-15T03:33:04;101589.19;;;22.29;66.65
81905;BME280;71370;-33.792;151.032;2024-01-15T03:34:11;101589.73;;;22.33;66.41
81905;BME280;71370;-33.792;151.032;2024-01-15T03:35:18;101589.80;;;22.38;66.65
81905;BME280;71370;-33.792;151.032;2024-01-15T03:36:25;101592.15;;;22.45;65.80
81905;BME280;71370;-33.792;151.032;2024-01-15T03:37:32;101584.44;;;22.52;65.37
81905;BME280;71370;-33.792;151.032;2024-01-15T03:38:42;101586.55;;;22.60;65.20
81905;BME280;71370;-33.792;151.032;2024-01-15T03:39:49;101589.35;;;22.68;64.22
81905;BME280;71370;-33.792;151.032;2024-01-15T03:40:56;101585.63;;;22.75;63.43
81905;BME280;71370;-33.792;151.032;2024-01-15T03:42:03;101585.81;;;22.82;63.78
81905;BME280;71370;-33.792;151.032;2024-01-15T03:43:10;101583.92;;;22.87;63.62
81905;BME280;71370;-33.792;151.032;2024-01-15T03:44:17;101586.59;;;22.94;63.27
81905;BME280;71370;-33.792;151.032;2024-01-15T03:45:23;101584.45;;;23.05;63.12
81905;BME280;71370;-33.792;151.032;2024-01-15T03:46:30;101586.63;;;23.19;62.70
81905;BME280;71370;-33.792;151.032;2024-01-15T03:47:37;101588.36;;;23.33;62.27
81905;BME280;71370;-33.792;151.032;2024-01-15T03:48:44;101587.56;;;23.48;61.86
81905;BME280;71370;-33.792;151.032;2024-01-15T03:49:51;101587.82;;;23.60;63.14
81905;BME280;71370;-33.792;151.032;2024-01-15T03:50:58;101581.36;;;23.69;61.49
81905;BME280;71370;-33.792;151.032;2024-01-15T03:52:05;101586.95;;;23.76;62.00
81905;BME280;71370;-33.792;151.032;2024-01-15T03:53:12;101585.23;;;23.81;62.17
81905;BME280;71370;-33.792;151.032;2024-01-15T03:54:19;101585.96;;;23.84;60.82
81905;BME280;71370;-33.792;151.032;2024-01-15T03:55:26;101586.82;;;23.85;60.97
81905;BME280;71370;-33.792;151.032;2024-01-15T03:56:33;101585.76;;;23.85;59.93
81905;BME280;71370;-33.792;151.032;2024-01-15T03:57:39;101582.52;;;23.85;60.12
81905;BME280;71370;-33.792;151.032;2024-01-15T03:58:46;101583.05;;;23.85;61.30
81905;BME280;71370;-33.792;151.032;2024-01-15T03:59:53;101584.60;;;23.86;62.04
81905;BME280;71370;-33.792;151.032;2024-01-15T04:01:00;101583.72;;;23.86;61.00
81905;BME280;71370;-33.792;151.032;2024-01-15T04:02:07;101580.56;;;23.85;60.18
81905;BME280;71370;-33.792;151.032;2024-01-15T04:03:14;101585.91;;;23.82;60.70
81905;BME280;71370;-33.792;151.032;2024-01-15T04:04:21;101585.08;;;23.81;60.24
81905;BME280;71370;-33.792;151.032;2024-01-15T04:05:28;101584.14;;;23.78;60.48
81905;BME280;71370;-33.792;151.032;2024-01-15T04:06:35;101580.95;;;23.74;59.77
81905;BME280;71370;-33.792;151.032;2024-01-15T04:07:41;101585.28;;;23.70;60.07
81905;BME280;71370;-33.792;151.032;2024-01-15T04:08:48;101587.02;;;23.68;60.71
81905;BME280;71370;-33.792;151.032;2024-01-15T04:09:55;101588.46;;;23.68;60.61
81905;BME280;71370;-33.792;151.032;2024-01-15T04:11:02;101582.58;;;23.67;58.58
81905;BME280;71370;-33.792;151.032;2024-01-15T04:12:10;101582.02;;;23.67;60.11
81905;BME280;71370;-33.792;151.032;2024-01-15T04:13:16;101584.95;;;23.69;60.24
81905;BME280;71370;-33.792;151.032;2024-01-15T04:14:23;101578.52;;;23.72;59.54
81905;BME280;71370;-33.792;151.032;2024-01-15T04:15:30;101579.58;;;23.76;59.69
81905;BME280;71370;-33.792;151.032;2024-01-15T04:16:37;101579.40;;;23.80;58.64
81905;BME280;71370;-33.792;151.032;2024-01-15T04:17:44;101582.51;;;23.82;58.48
81905;BME280;71370;-33.792;151.032;2024-01-15T04:18:51;101574.45;;;23.85;58.35
81905;BME280;71370;-33.792;151.032;2024-01-15T04:19:58;101582.11;;;23.89;59.17
81905;BME280;71370;-33.792;151.032;2024-01-15T04:21:06;101581.77;;;23.92;57.98
81905;BME280;71370;-33.792;151.032;2024-01-15T04:22:13;101579.30;;;23.95;57.04
81905;BME280;71370;-33.792;151.032;2024-01-15T04:23:20;101577.69;;;23.94;56.88
81905;BME280;71370;-33.792;151.032;2024-01-15T04:24:27;101573.77;;;23.94;57.50
81905;BME280;71370;-33.792;151.032;2024-01-15T04:25:34;101571.33;;;23.92;58.06
81905;BME280;71370;-33.792;151.032;2024-01-15T04:26:41;101571.96;;;23.91;58.12
81905;BME280;71370;-33.792;151.032;2024-01-15T04:27:47;101574.13;;;23.87;59.36
81905;BME280;71370;-33.792;151.032;2024-01-15T04:28:54;101578.08;;;23.84;59.07
81905;BME280;71370;-33.792;151.032;2024-01-15T04:30:01;101573.46;;;23.80;58.36
81905;BME280;71370;-33.792;151.032;2024-01-15T04:31:08;101571.89;;;23.75;58.65
81905;BME280;71370;-33.792;151.032;2024-01-15T04:32:15;101563.29;;;23.72;59.26
81905;BME280;71370;-33.792;151.032;2024-01-15T04:33:22;101564.06;;;23.70;59.62
81905;BME280;71370;-33.792;151.032;2024-01-15T04:34:29;101563.73;;;23.70;59.58
81905;BME280;71370;-33.792;151.032;2024-01-15T04:35:37;101565.94;;;23.73;60.67
81905;BME280;71370;-33.792;151.032;2024-01-15T04:36:44;101564.46;;;23.83;60.23
81905;BME280;71370;-33.792;151.032;2024-01-15T04:37:51;101560.77;;;23.98;59.64
81905;BME280;71370;-33.792;151.032;2024-01-15T04:38:58;101559.32;;;24.01;57.72
81905;BME280;71370;-33.792;151.032;2024-01-15T04:40:06;101557.27;;;24.00;58.53
81905;BME280;71370;-33.792;151.032;2024-01-15T04:41:14;101556.11;;;23.98;59.56
81905;BME280;71370;-33.792;151.032;2024-01-15T04:42:22;101555.80;;;23.97;59.84
81905;BME280;71370;-33.792;151.032;2024-01-15T04:43:29;101554.55;;;23.94;59.42
81905;BME280;71370;-33.792;151.032;2024-01-15T04:44:36;101553.81;;;23.91;59.06
81905;BME280;71370;-33.792;151.032;2024-01-15T04:45:43;101559.84;;;23.86;58.09
81905;BME280;71370;-33.792;151.032;2024-01-15T04:46:50;101558.42;;;23.79;57.80
81905;BME280;71370;-33.792;151.032;2024-01-15T04:47:57;101560.27;;;23.71;58.78
81905;BME280;71370;-33.792;151.032;2024-01-15T04:49:04;101560.58;;;23.62;59.28
81905;BME280;71370;-33.792;151.032;2024-01-15T04:50:11;101555.29;;;23.54;59.82
81905;BME280;71370;-33.792;151.032;2024-01-15T04:51:18;101555.36;;;23.46;59.77
81905;BME280;71370;-33.792;151.032;2024-01-15T04:52:24;101561.84;;;23.39;60.03
81905;BME280;71370;-33.792;151.032;2024-01-15T04:53:32;101556.31;;;23.32;59.76
81905;BME280;71370;-33.792;151.032;2024-01-15T04:54:39;101552.96;;;23.24;59.56
81905;BME280;71370;-33.792;151.032;2024-01-15T04:55:46;101551.17;;;23.17;60.38
81905;BME280;71370;-33.792;151.032;2024-01-15T04:56:52;101552.19;;;23.12;60.83
81905;BME280;71370;-33.792;151.032;2024-01-15T04:57:59;101554.73;;;23.08;61.35
81905;BME280;71370;-33.792;151.032;2024-01-15T04:59:06;101555.63;;;23.04;62.03
81905;BME280;71370;-33.792;151.032;2024-01-15T05:00:13;101558.95;;;23.02;60.53
81905;BME280;71370;-33.792;151.032;2024-01-15T05:01:20;101559.83;;;22.99;61.07
81905;BME280;71370;-33.792;151.032;2024-01-15T05:02:27;101557.80;;;22.96;60.78
81905;BME280;71370;-33.792;151.032;2024-01-15T05:03:34;101556.20;;;22.92;60.64
81905;BME280;71370;-33.792;151.032;2024-01-15T05:04:41;101553.89;;;22.88;60.25
81905;BME280;71370;-33.792;151.032;2024-01-15T05:05:48;101552.30;;;22.85;60.07
81905;BME280;71370;-33.792;151.032;2024-01-15T05:06:55;101548.58;;;22.80;60.27
81905;BME280;71370;-33.792;151.032;2024-01-15T05:08:02;101544.98;;;22.77;61.14
81905;BME280;71370;-33.792;151.032;2024-01-15T05:09:09;101544.88;;;22.76;61.77
81905;BME280;71370;-33.792;151.032;2024-01-15T05:10:16;101543.82;;;22.75;62.23
81905;BME280;71370;-33.792;151.032;2024-01-15T05:11:23;101540.59;;;22.76;62.06
81905;BME280;71370;-33.792;151.032;2024-01-15T05:12:30;101538.52;;;22.74;60.58
81905;BME280;71370;-33.792;151.032;2024-01-15T05:13:37;101543.10;;;22.72;60.53
81905;BME280;71370;-33.792;151.032;2024-01-15T05:14:43;101539.33;;;22.69;59.87
81905;BME280;71370;-33.792;151.032;2024-01-15T05:15:50;101536.61;;;22.66;59.85
81905;BME280;71370;-33.792;151.032;2024-01-15T05:16:57;101536.77;;;22.63;60.04
81905;BME280;71370;-33.792;151.032;2024-01-15T05:18:04;101535.86;;;22.60;60.02
81905;BME280;71370;-33.792;151.032;2024-01-15T05:19:12;101539.05;;;22.57;60.62
81905;BME280;71370;-33.792;151.032;2024-01-15T05:20:19;101538.10;;;22.54;60.10
81905;BME280;71370;-33.792;151.032;2024-01-15T05:21:26;101541.80;;;22.52;60.10
81905;BME280;71370;-33.792;151.032;2024-01-15T05:22:32;101533.48;;;22.49;59.29
81905;BME280;71370;-33.792;151.032;2024-01-15T05:23:39;101531.05;;;22.48;59.71
81905;BME280;71370;-33.792;151.032;2024-01-15T05:24:46;101532.58;;;22.46;59.50
81905;BME280;71370;-33.792;151.032;2024-01-15T05:25:54;101533.56;;;22.45;59.54
81905;BME280;71370;-33.792;151.032;2024-01-15T05:27:01;101533.08;;;22.44;59.58
81905;BME280;71370;-33.792;151.032;2024-01-15T05:28:07;101533.29;;;22.43;59.09
81905;BME280;71370;-33.792;151.032;2024-01-15T05:29:14;101529.92;;;22.42;59.28
81905;BME280;71370;-33.792;151.032;2024-01-15T05:30:21;101528.31;;;22.42;58.99
81905;BME280;71370;-33.792;151.032;2024-01-15T05:31:28;101530.10;;;22.42;58.57
81905;BME280;71370;-33.792;151.032;2024-01-15T05:32:35;101531.33;;;22.43;58.96
81905;BME280;71370;-33.792;151.032;2024-01-15T05:33:42;101536.59;;;22.42;59.16
81905;BME280;71370;-33.792;151.032;2024-01-15T05:34:49;101533.75;;;22.41;59.47
81905;BME280;71370;-33.792;151.032;2024-01-15T05:35:56;101535.83;;;22.39;60.42
81905;BME280;71370;-33.792;151.032;2024-01-15T05:37:04;101532.48;;;22.38;60.45